sensor_id;sensor_type;location;lat;lon;timestamp;temperature;humidity
8928;DHT22;4499;48.304;11.902;2023-03-14T00:00:07;9.40;99.90
8928;DHT22;4499;48.304;11.902;2023-03-14T00:02:38;9.30;99.90
8928;DHT22;4499;48.304;11.902;2023-03-14T00:05:07;9.30;99.90
8928;DHT22;4499;48.304;11.902;2023-03-14T00:07:37;9.20;99.90
8928;DHT22;4499;48.304;11.902;2023-03-14T00:10:08;9.10;99.90
8928;DHT22;4499;48.304;11.902;2023-03-14T00:12:37;9.00;99.90
8928;DHT22;4499;48.304;11.902;2023-03-14T00:15:06;9.00;99.90
8928;DHT22;4499;48.304;11.902;2023-03-14T00:17:38;8.90;99.90
8928;DHT22;4499;48.304;11.902;2023-03-14T00:20:07;9.00;99.90
8928;DHT22;4499;48.304;11.902;2023-03-14T00:22:38;9.00;99.90
8928;DHT22;4499;48.304;11.902;2023-03-14T00:25:08;9.00;99.90
8928;DHT22;4499;48.304;11.902;2023-03-14T00:27:36;9.00;99.90
8928;DHT22;4499;48.304;11.902;2023-03-14T00:30:05;9.00;99.90
8928;DHT22;4499;48.304;11.902;2023-03-14T00:32:35;9.00;99.90
8928;DHT22;4499;48.304;11.902;2023-03-14T00:35:05;9.00;99.90
8928;DHT22;4499;48.304;11.902;2023-03-14T00:37:33;8.90;99.90
8928;DHT22;4499;48.304;11.902;2023-03-14T00:40:02;9.00;99.90
8928;DHT22;4499;48.304;11.902;2023-03-14T00:42:33;9.00;99.90
8928;DHT22;4499;48.304;11.902;2023-03-14T00:45:01;9.00;99.90
8928;DHT22;4499;48.304;11.902;2023-03-14T00:47:30;9.00;99.90
8928;DHT22;4499;48.304;11.902;2023-03-14T00:49:58;9.10;99.90
8928;DHT22;4499;48.304;11.902;2023-03-14T00:52:28;9.10;99.90
8928;DHT22;4499;48.304;11.902;2023-03-14T00:54:56;9.10;99.90
8928;DHT22;4499;48.304;11.902;2023-03-14T00:57:24;9.10;99.90
8928;DHT22;4499;48.304;11.902;2023-03-14T00:59:52;9.20;99.90
8928;DHT22;4499;48.304;11.902;2023-03-14T01:02:20;9.20;99.90
8928;DHT22;4499;48.304;11.902;2023-03-14T01:04:48;9.20;99.90
8928;DHT22;4499;48.304;11.902;2023-03-14T01:07:17;9.30;99.90
8928;DHT22;4499;48.304;11.902;2023-03-14T01:09:46;9.30;99.90
8928;DHT22;4499;48.304;11.902;2023-03-14T01:12:15;9.30;99.90
8928;DHT22;4499;48.304;11.902;2023-03-14T01:14:43;9.40;99.90
8928;DHT22;4499;48.304;11.902;2023-03-14T01:17:11;9.40;99.90
8928;DHT22;4499;48.304;11.902;2023-03-14T01:19:39;9.50;99.90
8928;DHT22;4499;48.304;11.902;2023-03-14T01:22:10;9.50;99.90
8928;DHT22;4499;48.304;11.902;2023-03-14T01:24:38;9.60;99.90
8928;DHT22;4499;48.304;11.902;2023-03-14T01:27:07;9.60;99.90
8928;DHT22;4499;48.304;11.902;2023-03-14T01:29:35;9.60;99.90
8928;DHT22;4499;48.304;11.902;2023-03-14T01:32:04;9.60;99.90
8928;DHT22;4499;48.304;11.902;2023-03-14T01:34:32;9.60;99.90
8928;DHT22;4499;48.304;11.902;2023-03-14T01:37:00;9.60;99.90
8928;DHT22;4499;48.304;11.902;2023-03-14T01:39:28;9.60;99.90
8928;DHT22;4499;48.304;11.902;2023-03-14T01:41:56;9.60;99.90
8928;DHT22;4499;48.304;11.902;2023-03-14T01:44:27;9.60;99.90
8928;DHT22;4499;48.304;11.902;2023-03-14T01:46:56;9.60;99.90
8928;DHT22;4499;48.304;11.902;2023-03-14T01:49:30;9.50;99.90
8928;DHT22;4499;48.304;11.902;2023-03-14T01:52:01;9.50;99.90
8928;DHT22;4499;48.304;11.902;2023-03-14T01:54:32;9.40;99.90
8928;DHT22;4499;48.304;11.902;2023-03-14T01:57:07;9.40;99.90
8928;DHT22;4499;48.304;11.902;2023-03-14T01:59:38;9.30;99.90
8928;DHT22;4499;48.304;11.902;2023-03-14T02:02:12;9.30;99.90
8928;DHT22;4499;48.304;11.902;2023-03-14T02:04:41;9.30;99.90
8928;DHT22;4499;48.304;11.902;2023-03-14T02:07:13;9.30;99.90
8928;DHT22;4499;48.304;11.902;2023-03-14T02:09:44;9.20;99.90
8928;DHT22;4499;48.304;11.902;2023-03-14T02:12:15;9.10;99.90
8928;DHT22;4499;48.304;11.902;2023-03-14T02:14:45;9.10;99.90
8928;DHT22;4499;48.304;11.902;2023-03-14T02:17:16;9.00;99.90
8928;DHT22;4499;48.304;11.902;2023-03-14T02:19:56;9.00;99.90
8928;DHT22;4499;48.304;11.902;2023-03-14T02:22:25;8.90;99.90
8928;DHT22;4499;48.304;11.902;2023-03-14T02:24:59;8.90;99.90
8928;DHT22;4499;48.304;11.902;2023-03-14T02:27:33;8.90;99.90
8928;DHT22;4499;48.304;11.902;2023-03-14T02:30:04;8.90;99.90
8928;DHT22;4499;48.304;11.902;2023-03-14T02:32:34;8.80;99.90
8928;DHT22;4499;48.304;11.902;2023-03-14T02:35:08;8.80;99.90
8928;DHT22;4499;48.304;11.902;2023-03-14T02:37:41;8.70;99.90
8928;DHT22;4499;48.304;11.902;2023-03-14T02:40:10;8.70;99.90
8928;DHT22;4499;48.304;11.902;2023-03-14T02:42:40;8.60;99.90
8928;DHT22;4499;48.304;11.902;2023-03-14T02:45:34;8.60;99.90
8928;DHT22;4499;48.304;11.902;2023-03-14T02:48:05;8.60;99.90
8928;DHT22;4499;48.304;11.902;2023-03-14T02:50:34;8.50;99.90
8928;DHT22;4499;48.304;11.902;2023-03-14T02:53:03;8.50;99.90
8928;DHT22;4499;48.304;11.902;2023-03-14T02:55:31;8.50;99.90
8928;DHT22;4499;48.304;11.902;2023-03-14T02:58:00;8.50;99.90
8928;DHT22;4499;48.304;11.902;2023-03-14T03:00:29;8.50;99.90
8928;DHT22;4499;48.304;11.902;2023-03-14T03:02:57;8.50;99.90
8928;DHT22;4499;48.304;11.902;2023-03-14T03:05:25;8.40;99.90
8928;DHT22;4499;48.304;11.902;2023-03-14T03:07:53;8.40;99.90
8928;DHT22;4499;48.304;11.902;2023-03-14T03:10:24;8.40;99.90
8928;DHT22;4499;48.304;11.902;2023-03-14T03:12:53;8.50;99.90
8928;DHT22;4499;48.304;11.902;2023-03-14T03:15:22;8.40;99.90
8928;DHT22;4499;48.304;11.902;2023-03-14T03:17:50;8.40;99.90
8928;DHT22;4499;48.304;11.902;2023-03-14T03:20:18;8.40;99.90
8928;DHT22;4499;48.304;11.902;2023-03-14T03:22:46;8.40;99.90
8928;DHT22;4499;48.304;11.902;2023-03-14T03:25:16;8.40;99.90
8928;DHT22;4499;48.304;11.902;2023-03-14T03:27:45;8.30;99.90
8928;DHT22;4499;48.304;11.902;2023-03-14T03:30:13;8.30;99.90
8928;DHT22;4499;48.304;11.902;2023-03-14T03:32:43;8.30;99.90
8928;DHT22;4499;48.304;11.902;2023-03-14T03:35:11;8.30;99.90
8928;DHT22;4499;48.304;11.902;2023-03-14T03:37:40;8.30;99.90
8928;DHT22;4499;48.304;11.902;2023-03-14T03:40:10;8.30;99.90
8928;DHT22;4499;48.304;11.902;2023-03-14T03:42:38;8.30;99.90
8928;DHT22;4499;48.304;11.902;2023-03-14T03:45:07;8.30;99.90
8928;DHT22;4499;48.304;11.902;2023-03-14T03:47:35;8.40;99.90
8928;DHT22;4499;48.304;11.902;2023-03-14T03:50:06;8.40;99.90
8928;DHT22;4499;48.304;11.902;2023-03-14T03:52:34;8.40;99.90
8928;DHT22;4499;48.304;11.902;2023-03-14T03:55:03;8.50;99.90
8928;DHT22;4499;48.304;11.902;2023-03-14T03:57:31;8.40;99.90
8928;DHT22;4499;48.304;11.902;2023-03-14T03:59:59;8.50;99.90
8928;DHT22;4499;48.304;11.902;2023-03-14T04:02:28;8.40;99.90
8928;DHT22;4499;48.304;11.902;2023-03-14T04:04:56;8.50;99.90
8928;DHT22;4499;48.304;11.902;2023-03-14T04:07:25;8.50;99.90
8928;DHT22;4499;48.304;11.902;2023-03-14T04:09:53;8.50;99.90
8928;DHT22;4499;48.304;11.902;2023-03-14T04:12:22;8.50;99.90
8928;DHT22;4499;48.304;11.902;2023-03-14T04:14:50;8.50;99.90
8928;DHT22;4499;48.304;11.902;2023-03-14T04:17:18;8.50;99.90
8928;DHT22;4499;48.304;11.902;2023-03-14T04:19:49;8.50;99.90
8928;DHT22;4499;48.304;11.902;2023-03-14T04:22:20;8.50;99.90
8928;DHT22;4499;48.304;11.902;2023-03-14T04:24:49;8.50;99.90
8928;DHT22;4499;48.304;11.902;2023-03-14T04:27:18;8.50;99.90
8928;DHT22;4499;48.304;11.902;2023-03-14T04:29:46;8.50;99.90
8928;DHT22;4499;48.304;11.902;2023-03-14T04:32:14;8.40;99.90
8928;DHT22;4499;48.304;11.902;2023-03-14T04:34:42;8.40;99.90
8928;DHT22;4499;48.304;11.902;2023-03-14T04:37:10;8.40;99.90
8928;DHT22;4499;48.304;11.902;2023-03-14T04:39:39;8.50;99.90
8928;DHT22;4499;48.304;11.902;2023-03-14T04:42:08;8.50;99.90
8928;DHT22;4499;48.304;11.902;2023-03-14T04:44:36;8.50;99.90
8928;DHT22;4499;48.304;11.902;2023-03-14T04:47:04;8.50;99.90
8928;DHT22;4499;48.304;11.902;2023-03-14T04:49:33;8.40;99.90
8928;DHT22;4499;48.304;11.902;2023-03-14T04:52:01;8.40;99.90
8928;DHT22;4499;48.304;11.902;2023-03-14T04:54:30;8.40;99.90
8928;DHT22;4499;48.304;11.902;2023-03-14T04:56:58;8.30;99.90
8928;DHT22;4499;48.304;11.902;2023-03-14T04:59:27;8.30;99.90
8928;DHT22;4499;48.304;11.902;2023-03-14T05:01:56;8.30;99.90
8928;DHT22;4499;48.304;11.902;2023-03-14T05:04:24;8.30;99.90
8928;DHT22;4499;48.304;11.902;2023-03-14T05:06:52;8.30;99.90
8928;DHT22;4499;48.304;11.902;2023-03-14T05:09:21;8.30;99.90
8928;DHT22;4499;48.304;11.902;2023-03-14T05:11:49;8.30;99.90
8928;DHT22;4499;48.304;11.902;2023-03-14T05:14:17;8.30;99.90
8928;DHT22;4499;48.304;11.902;2023-03-14T05:16:47;8.20;99.90
8928;DHT22;4499;48.304;11.902;2023-03-14T05:19:15;8.20;99.90
8928;DHT22;4499;48.304;11.902;2023-03-14T05:21:43;8.20;99.90
8928;DHT22;4499;48.304;11.902;2023-03-14T05:24:11;8.20;99.90
8928;DHT22;4499;48.304;11.902;2023-03-14T05:26:40;8.20;99.90
8928;DHT22;4499;48.304;11.902;2023-03-14T05:29:08;8.20;99.90
8928;DHT22;4499;48.304;11.902;2023-03-14T05:31:36;8.20;99.90
8928;DHT22;4499;48.304;11.902;2023-03-14T05:34:06;8.10;99.90
8928;DHT22;4499;48.304;11.902;2023-03-14T05:36:34;8.10;99.90
8928;DHT22;4499;48.304;11.902;2023-03-14T05:39:02;8.20;99.90
8928;DHT22;4499;48.304;11.902;2023-03-14T05:41:31;8.20;99.90
8928;DHT22;4499;48.304;11.902;2023-03-14T05:43:59;8.20;99.90
8928;DHT22;4499;48.304;11.902;2023-03-14T05:46:27;8.20;99.90
8928;DHT22;4499;48.304;11.902;2023-03-14T05:48:57;8.10;99.90
8928;DHT22;4499;48.304;11.902;2023-03-14T05:51:27;8.10;99.90
8928;DHT22;4499;48.304;11.902;2023-03-14T05:53:55;8.10;99.90
8928;DHT22;4499;48.304;11.902;2023-03-14T05:56:23;8.10;99.90
8928;DHT22;4499;48.304;11.902;2023-03-14T05:58:51;8.00;99.90
8928;DHT22;4499;48.304;11.902;2023-03-14T06:01:19;8.10;99.90
8928;DHT22;4499;48.304;11.902;2023-03-14T06:03:48;8.10;99.90
8928;DHT22;4499;48.304;11.902;2023-03-14T06:06:16;8.00;99.90
8928;DHT22;4499;48.304;11.902;2023-03-14T06:08:46;8.00;99.90
8928;DHT22;4499;48.304;11.902;2023-03-14T06:11:16;8.10;99.90
8928;DHT22;4499;48.304;11.902;2023-03-14T06:13:44;8.10;99.90
8928;DHT22;4499;48.304;11.902;2023-03-14T06:16:13;8.10;99.90
8928;DHT22;4499;48.304;11.902;2023-03-14T06:18:41;8.10;99.90
8928;DHT22;4499;48.304;11.902;2023-03-14T06:21:09;8.10;99.90
8928;DHT22;4499;48.304;11.902;2023-03-14T06:23:37;8.20;99.90
8928;DHT22;4499;48.304;11.902;2023-03-14T06:26:07;8.10;99.90
8928;DHT22;4499;48.304;11.902;2023-03-14T06:28:35;8.20;99.90
8928;DHT22;4499;48.304;11.902;2023-03-14T06:31:04;8.20;99.90
8928;DHT22;4499;48.304;11.902;2023-03-14T06:33:33;8.20;99.90
8928;DHT22;4499;48.304;11.902;2023-03-14T06:36:01;8.20;99.90
8928;DHT22;4499;48.304;11.902;2023-03-14T06:38:29;8.30;99.90
8928;DHT22;4499;48.304;11.902;2023-03-14T06:41:03;8.30;99.90
8928;DHT22;4499;48.304;11.902;2023-03-14T06:43:33;8.30;99.90
8928;DHT22;4499;48.304;11.902;2023-03-14T06:46:01;8.30;99.90
8928;DHT22;4499;48.304;11.902;2023-03-14T06:48:29;8.30;99.90
8928;DHT22;4499;48.304;11.902;2023-03-14T06:50:57;8.40;99.90
8928;DHT22;4499;48.304;11.902;2023-03-14T06:53:25;8.40;99.90
8928;DHT22;4499;48.304;11.902;2023-03-14T06:55:54;8.50;99.90
8928;DHT22;4499;48.304;11.902;2023-03-14T06:58:22;8.50;99.90
8928;DHT22;4499;48.304;11.902;2023-03-14T07:00:52;8.60;99.90
8928;DHT22;4499;48.304;11.902;2023-03-14T07:03:21;8.70;99.90
8928;DHT22;4499;48.304;11.902;2023-03-14T07:05:49;8.80;99.90
8928;DHT22;4499;48.304;11.902;2023-03-14T07:08:18;9.00;99.90
8928;DHT22;4499;48.304;11.902;2023-03-14T07:10:46;9.10;99.90
8928;DHT22;4499;48.304;11.902;2023-03-14T07:13:14;9.10;99.90
8928;DHT22;4499;48.304;11.902;2023-03-14T07:15:42;9.20;99.90
8928;DHT22;4499;48.304;11.902;2023-03-14T07:18:12;9.10;99.90
8928;DHT22;4499;48.304;11.902;2023-03-14T07:20:40;9.20;99.90
8928;DHT22;4499;48.304;11.902;2023-03-14T07:23:08;9.20;99.90
8928;DHT22;4499;48.304;11.902;2023-03-14T07:25:36;9.10;99.90
8928;DHT22;4499;48.304;11.902;2023-03-14T07:28:04;9.20;99.90
8928;DHT22;4499;48.304;11.902;2023-03-14T07:30:32;9.20;99.90
8928;DHT22;4499;48.304;11.902;2023-03-14T07:33:01;9.10;99.90
8928;DHT22;4499;48.304;11.902;2023-03-14T07:35:30;9.20;99.90
8928;DHT22;4499;48.304;11.902;2023-03-14T07:37:59;9.20;99.90
8928;DHT22;4499;48.304;11.902;2023-03-14T07:40:27;9.20;99.90
8928;DHT22;4499;48.304;11.902;2023-03-14T07:42:55;9.20;99.90
8928;DHT22;4499;48.304;11.902;2023-03-14T07:45:24;9.20;99.90
8928;DHT22;4499;48.304;11.902;2023-03-14T07:47:54;9.20;99.90
8928;DHT22;4499;48.304;11.902;2023-03-14T07:50:24;9.20;99.90
8928;DHT22;4499;48.304;11.902;2023-03-14T07:52:54;9.20;99.90
8928;DHT22;4499;48.304;11.902;2023-03-14T07:55:22;9.20;99.90
8928;DHT22;4499;48.304;11.902;2023-03-14T07:57:51;9.20;99.90
8928;DHT22;4499;48.304;11.902;2023-03-14T08:00:20;9.30;99.90
8928;DHT22;4499;48.304;11.902;2023-03-14T08:02:48;9.30;99.90
8928;DHT22;4499;48.304;11.902;2023-03-14T08:05:16;9.40;99.90
8928;DHT22;4499;48.304;11.902;2023-03-14T08:07:45;9.50;99.90
8928;DHT22;4499;48.304;11.902;2023-03-14T08:10:16;9.50;99.90
8928;DHT22;4499;48.304;11.902;2023-03-14T08:12:52;9.60;99.90
8928;DHT22;4499;48.304;11.902;2023-03-14T08:15:22;9.70;99.90
8928;DHT22;4499;48.304;11.902;2023-03-14T08:17:50;9.70;99.90
8928;DHT22;4499;48.304;11.902;2023-03-14T08:20:22;9.80;99.90
8928;DHT22;4499;48.304;11.902;2023-03-14T08:22:50;9.90;99.90
8928;DHT22;4499;48.304;11.902;2023-03-14T08:25:19;10.00;99.90
8928;DHT22;4499;48.304;11.902;2023-03-14T08:27:48;10.10;99.90
8928;DHT22;4499;48.304;11.902;2023-03-14T08:30:17;10.10;99.90
8928;DHT22;4499;48.304;11.902;2023-03-14T08:32:46;10.10;99.90
8928;DHT22;4499;48.304;11.902;2023-03-14T08:35:14;10.20;99.90
8928;DHT22;4499;48.304;11.902;2023-03-14T08:37:43;10.20;99.90
8928;DHT22;4499;48.304;11.902;2023-03-14T08:40:12;10.30;99.90
8928;DHT22;4499;48.304;11.902;2023-03-14T08:42:41;10.30;99.90
8928;DHT22;4499;48.304;11.902;2023-03-14T08:45:13;10.30;99.90
8928;DHT22;4499;48.304;11.902;2023-03-14T08:47:43;10.30;99.90
8928;DHT22;4499;48.304;11.902;2023-03-14T08:50:12;10.30;99.90
8928;DHT22;4499;48.304;11.902;2023-03-14T08:52:42;10.30;99.90
8928;DHT22;4499;48.304;11.902;2023-03-14T08:55:11;10.60;99.90
8928;DHT22;4499;48.304;11.902;2023-03-14T08:57:40;10.70;99.90
8928;DHT22;4499;48.304;11.902;2023-03-14T09:00:10;10.90;99.90
8928;DHT22;4499;48.304;11.902;2023-03-14T09:02:41;11.00;99.90
8928;DHT22;4499;48.304;11.902;2023-03-14T09:05:10;11.20;99.90
8928;DHT22;4499;48.304;11.902;2023-03-14T09:07:39;11.30;99.90
8928;DHT22;4499;48.304;11.902;2023-03-14T09:10:09;11.30;99.90
8928;DHT22;4499;48.304;11.902;2023-03-14T09:12:38;11.40;99.90
8928;DHT22;4499;48.304;11.902;2023-03-14T09:15:09;11.30;99.90
8928;DHT22;4499;48.304;11.902;2023-03-14T09:17:37;11.00;99.90
8928;DHT22;4499;48.304;11.902;2023-03-14T09:20:06;11.10;99.90
8928;DHT22;4499;48.304;11.902;2023-03-14T09:22:35;11.00;99.90
8928;DHT22;4499;48.304;11.902;2023-03-14T09:25:04;11.10;99.90
8928;DHT22;4499;48.304;11.902;2023-03-14T09:27:32;11.10;99.90
8928;DHT22;4499;48.304;11.902;2023-03-14T09:30:01;11.20;99.90
8928;DHT22;4499;48.304;11.902;2023-03-14T09:32:31;11.20;99.90
8928;DHT22;4499;48.304;11.902;2023-03-14T09:34:59;11.40;99.90
8928;DHT22;4499;48.304;11.902;2023-03-14T09:37:27;11.40;99.90
8928;DHT22;4499;48.304;11.902;2023-03-14T09:39:56;11.50;99.90
8928;DHT22;4499;48.304;11.902;2023-03-14T09:42:26;11.40;99.90
8928;DHT22;4499;48.304;11.902;2023-03-14T09:44:59;11.50;99.90
8928;DHT22;4499;48.304;11.902;2023-03-14T09:47:33;11.60;99.90
8928;DHT22;4499;48.304;11.902;2023-03-14T09:50:12;11.70;99.90
8928;DHT22;4499;48.304;11.902;2023-03-14T09:52:45;11.70;99.90
8928;DHT22;4499;48.304;11.902;2023-03-14T09:55:17;11.80;99.90
8928;DHT22;4499;48.304;11.902;2023-03-14T09:57:49;11.70;99.90
8928;DHT22;4499;48.304;11.902;2023-03-14T10:00:21;11.70;99.90
8928;DHT22;4499;48.304;11.902;2023-03-14T10:02:53;11.60;99.90
8928;DHT22;4499;48.304;11.902;2023-03-14T10:05:28;11.50;99.90
8928;DHT22;4499;48.304;11.902;2023-03-14T10:08:02;11.40;99.90
8928;DHT22;4499;48.304;11.902;2023-03-14T10:10:31;11.20;99.90
8928;DHT22;4499;48.304;11.902;2023-03-14T10:13:10;11.20;99.90
8928;DHT22;4499;48.304;11.902;2023-03-14T10:15:41;11.10;99.90
8928;DHT22;4499;48.304;11.902;2023-03-14T10:18:12;11.00;99.90
8928;DHT22;4499;48.304;11.902;2023-03-14T10:20:42;10.90;99.90
8928;DHT22;4499;48.304;11.902;2023-03-14T10:23:26;11.30;99.90
8928;DHT22;4499;48.304;11.902;2023-03-14T10:26:08;11.60;99.90
8928;DHT22;4499;48.304;11.902;2023-03-14T10:28:39;11.80;99.90
8928;DHT22;4499;48.304;11.902;2023-03-14T10:31:07;11.80;99.90
8928;DHT22;4499;48.304;11.902;2023-03-14T10:33:38;12.00;99.90
8928;DHT22;4499;48.304;11.902;2023-03-14T10:36:17;12.00;99.90
8928;DHT22;4499;48.304;11.902;2023-03-14T10:38:47;12.10;99.90
8928;DHT22;4499;48.304;11.902;2023-03-14T10:41:19;11.90;99.90
8928;DHT22;4499;48.304;11.902;2023-03-14T10:43:50;11.90;99.90
8928;DHT22;4499;48.304;11.902;2023-03-14T10:46:20;11.90;99.90
8928;DHT22;4499;48.304;11.902;2023-03-14T10:48:49;12.00;99.90
8928;DHT22;4499;48.304;11.902;2023-03-14T10:51:24;12.50;99.90
8928;DHT22;4499;48.304;11.902;2023-03-14T10:53:57;13.00;99.90
8928;DHT22;4499;48.304;11.902;2023-03-14T10:56:27;13.20;99.90
8928;DHT22;4499;48.304;11.902;2023-03-14T10:59:00;13.50;99.90
8928;DHT22;4499;48.304;11.902;2023-03-14T11:01:41;13.60;99.90
8928;DHT22;4499;48.304;11.902;2023-03-14T11:04:25;13.50;99.90
8928;DHT22;4499;48.304;11.902;2023-03-14T11:07:04;13.30;99.90
8928;DHT22;4499;48.304;11.902;2023-03-14T11:09:38;13.00;99.90
8928;DHT22;4499;48.304;11.902;2023-03-14T11:12:25;12.90;99.90
8928;DHT22;4499;48.304;11.902;2023-03-14T11:15:02;12.50;99.90
8928;DHT22;4499;48.304;11.902;2023-03-14T11:17:39;12.30;99.90
8928;DHT22;4499;48.304;11.902;2023-03-14T11:20:23;12.30;99.90
8928;DHT22;4499;48.304;11.902;2023-03-14T11:22:58;12.20;99.90
8928;DHT22;4499;48.304;11.902;2023-03-14T11:25:32;12.00;99.90
8928;DHT22;4499;48.304;11.902;2023-03-14T11:28:13;11.90;99.90
8928;DHT22;4499;48.304;11.902;2023-03-14T11:30:49;11.80;99.90
8928;DHT22;4499;48.304;11.902;2023-03-14T11:33:21;11.80;99.90
8928;DHT22;4499;48.304;11.902;2023-03-14T11:35:59;11.80;99.90
8928;DHT22;4499;48.304;11.902;2023-03-14T11:38:34;11.90;99.90
8928;DHT22;4499;48.304;11.902;2023-03-14T11:41:09;12.10;99.90
8928;DHT22;4499;48.304;11.902;2023-03-14T11:43:40;12.30;99.90
8928;DHT22;4499;48.304;11.902;2023-03-14T11:46:13;12.50;99.90
8928;DHT22;4499;48.304;11.902;2023-03-14T11:48:45;12.70;99.90
8928;DHT22;4499;48.304;11.902;2023-03-14T11:51:22;12.80;99.90
8928;DHT22;4499;48.304;11.902;2023-03-14T11:53:57;12.80;99.90
8928;DHT22;4499;48.304;11.902;2023-03-14T11:56:31;12.90;99.90
8928;DHT22;4499;48.304;11.902;2023-03-14T11:59:04;13.20;99.90
8928;DHT22;4499;48.304;11.902;2023-03-14T12:01:52;13.20;99.90
8928;DHT22;4499;48.304;11.902;2023-03-14T12:04:31;13.00;99.90
8928;DHT22;4499;48.304;11.902;2023-03-14T12:07:06;12.80;99.90
8928;DHT22;4499;48.304;11.902;2023-03-14T12:09:37;12.60;99.90
8928;DHT22;4499;48.304;11.902;2023-03-14T12:12:06;12.70;99.90
8928;DHT22;4499;48.304;11.902;2023-03-14T12:14:46;12.60;99.90
8928;DHT22;4499;48.304;11.902;2023-03-14T12:17:21;12.50;99.90
8928;DHT22;4499;48.304;11.902;2023-03-14T12:20:02;12.40;99.90
8928;DHT22;4499;48.304;11.902;2023-03-14T12:22:35;12.40;99.90
8928;DHT22;4499;48.304;11.902;2023-03-14T12:25:14;12.40;99.90
8928;DHT22;4499;48.304;11.902;2023-03-14T12:28:04;12.40;99.90
8928;DHT22;4499;48.304;11.902;2023-03-14T12:30:42;12.30;99.90
8928;DHT22;4499;48.304;11.902;2023-03-14T12:33:21;12.30;99.90
8928;DHT22;4499;48.304;11.902;2023-03-14T12:36:02;12.20;99.90
8928;DHT22;4499;48.304;11.902;2023-03-14T12:38:45;12.10;99.90
8928;DHT22;4499;48.304;11.902;2023-03-14T12:41:17;12.30;99.90
8928;DHT22;4499;48.304;11.902;2023-03-14T12:43:48;12.20;99.90
8928;DHT22;4499;48.304;11.902;2023-03-14T12:46:24;12.10;99.90
8928;DHT22;4499;48.304;11.902;2023-03-14T12:49:03;12.00;99.90
8928;DHT22;4499;48.304;11.902;2023-03-14T12:51:35;12.10;99.90
8928;DHT22;4499;48.304;11.902;2023-03-14T12:54:35;12.10;99.90
8928;DHT22;4499;48.304;11.902;2023-03-14T12:57:25;12.20;99.90
8928;DHT22;4499;48.304;11.902;2023-03-14T12:59:56;12.30;99.90
8928;DHT22;4499;48.304;11.902;2023-03-14T13:02:27;12.50;99.90
8928;DHT22;4499;48.304;11.902;2023-03-14T13:05:08;12.60;99.90
8928;DHT22;4499;48.304;11.902;2023-03-14T13:08:04;12.60;99.90
8928;DHT22;4499;48.304;11.902;2023-03-14T13:10:48;12.60;99.90
8928;DHT22;4499;48.304;11.902;2023-03-14T13:13:20;12.70;99.90
8928;DHT22;4499;48.304;11.902;2023-03-14T13:15:54;12.70;99.90
8928;DHT22;4499;48.304;11.902;2023-03-14T13:18:29;12.70;99.90
8928;DHT22;4499;48.304;11.902;2023-03-14T13:21:02;12.50;99.90
8928;DHT22;4499;48.304;11.902;2023-03-14T13:23:34;12.50;99.90
8928;DHT22;4499;48.304;11.902;2023-03-14T13:26:11;12.30;99.90
8928;DHT22;4499;48.304;11.902;2023-03-14T13:28:41;12.10;99.90
8928;DHT22;4499;48.304;11.902;2023-03-14T13:31:20;12.10;99.90
8928;DHT22;4499;48.304;11.902;2023-03-14T13:33:57;12.00;99.90
8928;DHT22;4499;48.304;11.902;2023-03-14T13:36:26;11.90;99.90
8928;DHT22;4499;48.304;11.902;2023-03-14T13:38:59;12.00;99.90
8928;DHT22;4499;48.304;11.902;2023-03-14T13:41:29;12.00;99.90
8928;DHT22;4499;48.304;11.902;2023-03-14T13:44:03;11.90;99.90
8928;DHT22;4499;48.304;11.902;2023-03-14T13:46:34;11.90;99.90
8928;DHT22;4499;48.304;11.902;2023-03-14T13:49:05;11.90;99.90
8928;DHT22;4499;48.304;11.902;2023-03-14T13:51:33;11.80;99.90
8928;DHT22;4499;48.304;11.902;2023-03-14T13:54:02;11.50;99.90
8928;DHT22;4499;48.304;11.902;2023-03-14T13:56:33;11.40;99.90
8928;DHT22;4499;48.304;11.902;2023-03-14T13:59:01;11.50;99.90
8928;DHT22;4499;48.304;11.902;2023-03-14T14:01:31;11.40;99.90
8928;DHT22;4499;48.304;11.902;2023-03-14T14:04:06;11.30;99.90
8928;DHT22;4499;48.304;11.902;2023-03-14T14:06:37;11.40;99.90
8928;DHT22;4499;48.304;11.902;2023-03-14T14:09:11;11.30;99.90
8928;DHT22;4499;48.304;11.902;2023-03-14T14:11:44;11.20;99.90
8928;DHT22;4499;48.304;11.902;2023-03-14T14:14:35;11.00;99.90
8928;DHT22;4499;48.304;11.902;2023-03-14T14:17:09;10.60;99.90
8928;DHT22;4499;48.304;11.902;2023-03-14T14:19:38;10.30;99.90
8928;DHT22;4499;48.304;11.902;2023-03-14T14:22:08;10.20;99.90
8928;DHT22;4499;48.304;11.902;2023-03-14T14:24:38;10.10;99.90
8928;DHT22;4499;48.304;11.902;2023-03-14T14:27:13;10.20;99.90
8928;DHT22;4499;48.304;11.902;2023-03-14T14:29:42;10.00;99.90
8928;DHT22;4499;48.304;11.902;2023-03-14T14:32:14;9.80;99.90
8928;DHT22;4499;48.304;11.902;2023-03-14T14:34:44;9.70;99.90
8928;DHT22;4499;48.304;11.902;2023-03-14T14:37:21;9.50;99.90
8928;DHT22;4499;48.304;11.902;2023-03-14T14:39:55;9.40;99.90
8928;DHT22;4499;48.304;11.902;2023-03-14T14:42:27;9.30;99.90
8928;DHT22;4499;48.304;11.902;2023-03-14T14:44:57;9.20;99.90
8928;DHT22;4499;48.304;11.902;2023-03-14T14:47:28;9.10;99.90
8928;DHT22;4499;48.304;11.902;2023-03-14T14:50:00;9.00;99.90
8928;DHT22;4499;48.304;11.902;2023-03-14T14:52:36;8.90;99.90
8928;DHT22;4499;48.304;11.902;2023-03-14T14:55:16;8.90;99.90
8928;DHT22;4499;48.304;11.902;2023-03-14T14:57:51;8.80;99.90
8928;DHT22;4499;48.304;11.902;2023-03-14T15:00:21;8.80;99.90
8928;DHT22;4499;48.304;11.902;2023-03-14T15:02:51;8.60;99.90
8928;DHT22;4499;48.304;11.902;2023-03-14T15:05:24;8.20;99.90
8928;DHT22;4499;48.304;11.902;2023-03-14T15:07:54;8.00;99.90
8928;DHT22;4499;48.304;11.902;2023-03-14T15:10:24;7.70;99.90
8928;DHT22;4499;48.304;11.902;2023-03-14T15:12:54;7.50;99.90
8928;DHT22;4499;48.304;11.902;2023-03-14T15:15:22;7.40;99.90
8928;DHT22;4499;48.304;11.902;2023-03-14T15:17:50;7.40;99.90
8928;DHT22;4499;48.304;11.902;2023-03-14T15:20:19;7.40;99.90
8928;DHT22;4499;48.304;11.902;2023-03-14T15:22:50;7.40;99.90
8928;DHT22;4499;48.304;11.902;2023-03-14T15:25:18;7.40;99.90
8928;DHT22;4499;48.304;11.902;2023-03-14T15:28:21;7.40;99.90
8928;DHT22;4499;48.304;11.902;2023-03-14T15:30:51;7.40;99.90
8928;DHT22;4499;48.304;11.902;2023-03-14T15:33:20;7.40;99.90
8928;DHT22;4499;48.304;11.902;2023-03-14T15:35:49;7.30;99.90
8928;DHT22;4499;48.304;11.902;2023-03-14T15:38:19;7.20;99.90
8928;DHT22;4499;48.304;11.902;2023-03-14T15:40:47;7.20;99.90
8928;DHT22;4499;48.304;11.902;2023-03-14T15:43:16;7.20;99.90
8928;DHT22;4499;48.304;11.902;2023-03-14T15:45:46;7.20;99.90
8928;DHT22;4499;48.304;11.902;2023-03-14T15:48:16;7.30;99.90
8928;DHT22;4499;48.304;11.902;2023-03-14T15:50:44;7.30;99.90
8928;DHT22;4499;48.304;11.902;2023-03-14T15:53:13;7.40;99.90
8928;DHT22;4499;48.304;11.902;2023-03-14T15:55:42;7.40;99.90
8928;DHT22;4499;48.304;11.902;2023-03-14T15:58:15;7.40;99.90
8928;DHT22;4499;48.304;11.902;2023-03-14T16:00:49;7.40;99.90
8928;DHT22;4499;48.304;11.902;2023-03-14T16:03:17;7.40;99.90
8928;DHT22;4499;48.304;11.902;2023-03-14T16:05:45;7.40;99.90
8928;DHT22;4499;48.304;11.902;2023-03-14T16:08:14;7.40;99.90
8928;DHT22;4499;48.304;11.902;2023-03-14T16:10:43;7.40;99.90
8928;DHT22;4499;48.304;11.902;2023-03-14T16:13:12;7.40;99.90
8928;DHT22;4499;48.304;11.902;2023-03-14T16:15:40;7.40;99.90
8928;DHT22;4499;48.304;11.902;2023-03-14T16:18:10;7.40;99.90